Aviation Digital Data Service (ADDS)

Output produced by METARs form (1703 UTC 11 February 2016)
found at http://www.aviationweather.gov/adds/metars/
 
KALB 111555Z 1116/1212 29015G27KT P6SM VCSH BKN045 BKN070 
     TEMPO 1116/1118 2SM -SHSN BLSN BKN025 OVC035 
     FM120200 30012KT P6SM SCT045 
     FM120700 29005KT P6SM SKC